Time;durP1;ratioP1;P1;durP2;ratioP2;P2;SDS_P1;SDS_P2;PMS_P1;PMS_P2;Temp;Humidity;BMP_temperature;BMP_pressure;BME280_temperature;BME280_humidity;BME280_pressure;Samples;Min_cycle;Max_cycle;Signal;HPM_P1;HPM_P2
2023/08/04 00:02:19;;;;;;;3.10;1.10;;;17.80;97.20;;;;;;5053167;28;20460;-68
2023/08/04 00:04:47;;;;;;;2.33;0.97;;;17.80;97.50;;;;;;5053175;28;20532;-73
2023/08/04 00:07:14;;;;;;;4.80;1.63;;;17.80;97.60;;;;;;5053219;28;20470;-68
2023/08/04 00:09:41;;;;;;;3.60;1.50;;;17.90;97.40;;;;;;5052611;28;21041;-68
2023/08/04 00:12:10;;;;;;;3.17;1.33;;;17.80;97.60;;;;;;5052446;28;20450;-68
2023/08/04 00:14:38;;;;;;;4.73;1.57;;;17.80;97.70;;;;;;5053117;28;20438;-67
2023/08/04 00:17:05;;;;;;;3.43;1.20;;;17.80;97.50;;;;;;5053145;28;20461;-67
2023/08/04 00:19:34;;;;;;;3.40;1.70;;;17.90;97.90;;;;;;5052638;28;20568;-67
2023/08/04 00:22:01;;;;;;;2.00;0.90;;;17.90;98.00;;;;;;5052632;28;20968;-67
2023/08/04 00:24:28;;;;;;;2.73;1.10;;;18.00;98.20;;;;;;5056399;28;20509;-67
2023/08/04 00:26:55;;;;;;;5.63;1.23;;;18.00;97.70;;;;;;5056211;28;20533;-67
2023/08/04 00:29:22;;;;;;;5.70;1.57;;;18.00;97.80;;;;;;5056558;28;20473;-67
2023/08/04 00:31:50;;;;;;;3.10;1.10;;;18.00;97.50;;;;;;5056661;28;20462;-67
2023/08/04 00:34:17;;;;;;;2.43;1.00;;;18.00;97.70;;;;;;5056277;28;20523;-68
2023/08/04 00:36:45;;;;;;;4.97;1.20;;;18.00;97.90;;;;;;5056475;28;20435;-67
2023/08/04 00:39:15;;;;;;;5.87;1.53;;;18.00;97.50;;;;;;5056311;28;20878;-67
2023/08/04 00:41:43;;;;;;;5.67;1.50;;;18.00;97.50;;;;;;5056116;28;20504;-67
2023/08/04 00:44:10;;;;;;;2.53;1.10;;;18.00;97.50;;;;;;5055992;28;20565;-67
2023/08/04 00:46:37;;;;;;;3.10;1.37;;;18.10;97.60;;;;;;5056141;28;20851;-67
2023/08/04 00:49:07;;;;;;;3.30;1.40;;;18.00;97.40;;;;;;5055912;28;20520;-67
2023/08/04 00:51:35;;;;;;;3.43;1.70;;;17.90;97.40;;;;;;5055804;28;20915;-68
2023/08/04 00:54:02;;;;;;;2.70;1.10;;;17.80;97.70;;;;;;5055807;28;20470;-67
2023/08/04 00:56:31;;;;;;;3.40;1.37;;;17.70;98.00;;;;;;5056280;28;20477;-67
2023/08/04 00:59:02;;;;;;;3.23;1.30;;;17.70;97.80;;;;;;5056204;28;20559;-68
2023/08/04 01:01:30;;;;;;;3.10;1.27;;;17.70;98.20;;;;;;5056140;28;20778;-67
2023/08/04 01:04:00;;;;;;;2.53;1.20;;;17.70;98.10;;;;;;5055709;28;20449;-67
2023/08/04 01:06:50;;;;;;;3.27;1.40;;;17.70;98.40;;;;;;5055266;28;20524;-67
2023/08/04 01:09:27;;;;;;;3.93;1.53;;;17.60;98.20;;;;;;5055906;28;20426;-68
2023/08/04 01:12:01;;;;;;;2.97;1.67;;;17.60;98.50;;;;;;5055565;28;20421;-69
2023/08/04 01:14:31;;;;;;;3.90;1.40;;;17.70;98.70;;;;;;5055487;28;20611;-67
2023/08/04 01:17:02;;;;;;;4.97;1.90;;;17.70;98.70;;;;;;5055482;28;20861;-67
2023/08/04 01:19:29;;;;;;;4.80;1.43;;;17.80;98.50;;;;;;5055071;28;21049;-68
2023/08/04 01:21:57;;;;;;;3.60;1.27;;;17.80;98.70;;;;;;5055055;28;20476;-67
2023/08/04 01:24:26;;;;;;;3.10;1.17;;;17.80;98.90;;;;;;5054940;28;20477;-68
2023/08/04 01:26:55;;;;;;;4.13;1.20;;;17.80;98.70;;;;;;5055325;28;20525;-67
2023/08/04 01:29:23;;;;;;;3.33;1.50;;;17.80;98.60;;;;;;5055885;28;20477;-67
2023/08/04 01:31:50;;;;;;;4.63;1.47;;;17.80;98.40;;;;;;5055161;28;20452;-67
2023/08/04 01:34:18;;;;;;;3.43;1.67;;;17.80;98.30;;;;;;5054421;28;20528;-67
2023/08/04 01:36:45;;;;;;;1.90;1.00;;;17.80;98.60;;;;;;5054936;28;20537;-67
2023/08/04 01:39:14;;;;;;;4.07;1.20;;;17.80;98.60;;;;;;5054881;28;20559;-68
2023/08/04 01:41:41;;;;;;;2.10;0.90;;;17.80;98.80;;;;;;5054835;28;20481;-68
2023/08/04 01:44:08;;;;;;;4.03;1.30;;;17.80;99.00;;;;;;5054377;28;20433;-67
2023/08/04 01:46:35;;;;;;;2.90;1.20;;;17.80;99.00;;;;;;5055195;28;20776;-67
2023/08/04 01:49:02;;;;;;;3.80;1.77;;;17.80;99.00;;;;;;5054919;28;20491;-67
2023/08/04 01:51:30;;;;;;;3.20;1.87;;;17.80;98.80;;;;;;5055113;28;20842;-67
2023/08/04 01:53:57;;;;;;;3.10;1.50;;;17.80;98.50;;;;;;5054774;28;20473;-68
2023/08/04 01:56:25;;;;;;;2.20;1.40;;;17.80;98.50;;;;;;5054653;28;20470;-67
2023/08/04 01:58:52;;;;;;;2.60;1.63;;;17.80;98.30;;;;;;5054832;28;20941;-68
2023/08/04 02:01:20;;;;;;;2.70;1.70;;;17.80;98.30;;;;;;5054846;28;20437;-67
2023/08/04 02:03:46;;;;;;;2.80;0.93;;;17.80;98.40;;;;;;5054597;28;20520;-67
2023/08/04 02:06:15;;;;;;;3.67;1.40;;;17.80;98.10;;;;;;5054635;28;20517;-67
2023/08/04 02:08:42;;;;;;;4.57;1.70;;;17.60;98.20;;;;;;5054764;28;20435;-67
2023/08/04 02:11:09;;;;;;;5.47;1.97;;;17.60;98.80;;;;;;5054171;28;20488;-67
2023/08/04 02:13:37;;;;;;;2.73;1.47;;;17.50;99.20;;;;;;5054234;28;20508;-67
2023/08/04 02:16:04;;;;;;;2.23;1.10;;;17.50;99.50;;;;;;5054565;28;20478;-68
2023/08/04 02:18:31;;;;;;;3.17;1.27;;;17.60;99.70;;;;;;5054503;28;20479;-67
2023/08/04 02:20:58;;;;;;;3.30;1.60;;;17.60;99.70;;;;;;5054204;28;20465;-67
2023/08/04 02:23:25;;;;;;;6.87;1.70;;;17.70;99.30;;;;;;5054211;28;20488;-68
2023/08/04 02:25:52;;;;;;;2.50;1.40;;;17.70;99.20;;;;;;5054476;28;20471;-68
2023/08/04 02:28:19;;;;;;;4.20;2.57;;;17.70;99.10;;;;;;5054597;28;20849;-67
2023/08/04 02:30:48;;;;;;;4.23;1.43;;;17.60;98.70;;;;;;5052406;28;20460;-68
2023/08/04 02:33:15;;;;;;;2.90;1.37;;;17.50;99.00;;;;;;5054047;28;20982;-68
2023/08/04 02:35:42;;;;;;;5.30;1.20;;;17.40;99.10;;;;;;5053914;28;20438;-68
2023/08/04 02:38:09;;;;;;;5.40;1.37;;;17.40;98.90;;;;;;5053908;28;20923;-68
2023/08/04 02:40:36;;;;;;;3.03;1.67;;;17.10;99.60;;;;;;5053609;28;20568;-67
2023/08/04 02:43:04;;;;;;;2.50;1.50;;;16.90;99.90;;;;;;5053753;28;20437;-67
2023/08/04 02:45:30;;;;;;;4.20;1.63;;;16.80;99.90;;;;;;5053109;28;20443;-67
2023/08/04 02:47:59;;;;;;;2.90;1.40;;;16.80;99.90;;;;;;5053778;28;20531;-67
2023/08/04 02:50:26;;;;;;;2.57;1.20;;;16.70;99.90;;;;;;5053449;28;20491;-67
2023/08/04 02:52:53;;;;;;;2.90;1.53;;;16.70;99.90;;;;;;5053995;28;20485;-67
2023/08/04 02:55:20;;;;;;;2.57;1.20;;;16.60;99.90;;;;;;5054083;28;20436;-67
2023/08/04 02:57:47;;;;;;;4.27;1.40;;;16.50;99.90;;;;;;5053553;28;20476;-67
2023/08/04 03:00:14;;;;;;;3.83;1.30;;;16.60;99.90;;;;;;5053536;28;20508;-67
2023/08/04 03:02:41;;;;;;;5.40;1.40;;;16.60;99.90;;;;;;5053197;28;20966;-68
2023/08/04 03:05:10;;;;;;;2.43;1.10;;;16.60;99.90;;;;;;5053746;28;20440;-68
2023/08/04 03:07:37;;;;;;;3.23;1.30;;;16.60;99.90;;;;;;5053629;28;20487;-68
2023/08/04 03:10:05;;;;;;;1.80;0.80;;;16.50;99.90;;;;;;5053359;28;20501;-67
2023/08/04 03:12:32;;;;;;;3.37;1.20;;;16.50;99.90;;;;;;5053847;28;20836;-67
2023/08/04 03:14:59;;;;;;;4.23;2.10;;;16.40;99.90;;;;;;5053409;28;20435;-68
2023/08/04 03:17:26;;;;;;;3.23;1.47;;;16.40;99.90;;;;;;5053370;28;20531;-68
2023/08/04 03:19:53;;;;;;;3.73;1.63;;;16.30;99.90;;;;;;5052886;28;20579;-69
2023/08/04 03:22:23;;;;;;;6.13;1.37;;;16.30;99.90;;;;;;5052652;28;20469;-68
2023/08/04 03:24:50;;;;;;;5.77;1.80;;;16.30;99.90;;;;;;5053265;28;20467;-68
2023/08/04 03:27:17;;;;;;;3.30;1.20;;;16.20;99.90;;;;;;5053220;28;20432;-68
2023/08/04 03:29:44;;;;;;;2.10;1.30;;;16.30;99.90;;;;;;5053552;28;20523;-68
2023/08/04 03:32:11;;;;;;;2.60;1.30;;;16.40;99.90;;;;;;5052929;28;20532;-68
2023/08/04 03:34:38;;;;;;;2.93;0.90;;;16.50;99.90;;;;;;5053538;28;20469;-69
2023/08/04 03:37:05;;;;;;;2.93;1.20;;;16.60;99.90;;;;;;5053421;28;20480;-68
2023/08/04 03:39:34;;;;;;;5.37;1.10;;;16.60;99.90;;;;;;5053400;28;20901;-68
2023/08/04 03:42:01;;;;;;;3.80;1.10;;;16.60;99.90;;;;;;5053249;28;20524;-68
2023/08/04 03:44:28;;;;;;;2.50;1.30;;;16.50;99.90;;;;;;5053120;28;20470;-68
2023/08/04 03:46:55;;;;;;;2.60;1.30;;;16.50;99.90;;;;;;5053062;28;20525;-68
2023/08/04 03:49:22;;;;;;;3.73;1.10;;;16.60;99.90;;;;;;5053351;28;20483;-68
2023/08/04 03:51:49;;;;;;;5.13;1.10;;;16.60;99.90;;;;;;5052653;28;20445;-68
2023/08/04 03:54:16;;;;;;;3.70;1.10;;;16.60;99.90;;;;;;5053043;28;20438;-68
2023/08/04 03:56:44;;;;;;;2.90;1.00;;;16.70;99.90;;;;;;5054062;28;20464;-68
2023/08/04 03:59:12;;;;;;;3.83;1.57;;;16.60;99.90;;;;;;5057169;28;20551;-68
2023/08/04 04:01:39;;;;;;;2.40;1.10;;;16.50;99.90;;;;;;5056547;28;20785;-68
2023/08/04 04:04:11;;;;;;;3.60;1.70;;;16.40;99.90;;;;;;5056199;28;20501;-68
2023/08/04 04:06:38;;;;;;;3.50;1.20;;;16.40;99.90;;;;;;5056971;28;20513;-68
2023/08/04 04:09:05;;;;;;;2.77;1.00;;;16.30;99.90;;;;;;5057030;28;20436;-68
2023/08/04 04:11:32;;;;;;;2.40;1.20;;;16.40;99.90;;;;;;5056720;28;20465;-68
2023/08/04 04:14:01;;;;;;;2.80;1.43;;;16.30;99.90;;;;;;5055871;28;20441;-68
2023/08/04 04:16:30;;;;;;;2.40;1.20;;;16.20;99.90;;;;;;5056423;28;20873;-68
2023/08/04 04:18:57;;;;;;;4.87;1.20;;;16.20;99.90;;;;;;5056543;28;20520;-68
2023/08/04 04:21:24;;;;;;;4.23;1.50;;;16.30;99.90;;;;;;5055821;28;20506;-68
2023/08/04 04:23:50;;;;;;;2.00;1.00;;;16.30;99.90;;;;;;5056815;28;20461;-68
2023/08/04 04:26:17;;;;;;;3.20;1.30;;;16.40;99.90;;;;;;5056698;28;20867;-68
2023/08/04 04:28:44;;;;;;;5.30;1.13;;;16.40;99.90;;;;;;5054154;28;20441;-68
2023/08/04 04:31:13;;;;;;;3.00;1.10;;;16.30;99.90;;;;;;5056422;28;20513;-68
2023/08/04 04:33:40;;;;;;;2.73;1.20;;;16.40;99.90;;;;;;5056036;28;20524;-68
2023/08/04 04:36:07;;;;;;;2.07;1.13;;;16.40;99.90;;;;;;5055933;28;20502;-68
2023/08/04 04:38:34;;;;;;;5.70;1.20;;;16.50;99.90;;;;;;5055991;28;20475;-68
2023/08/04 04:41:02;;;;;;;2.80;1.17;;;16.50;99.90;;;;;;5055095;28;20473;-68
2023/08/04 04:43:30;;;;;;;3.70;1.13;;;16.50;99.90;;;;;;5056460;28;20810;-68
2023/08/04 04:45:57;;;;;;;1.90;1.00;;;16.60;99.90;;;;;;5056488;28;20429;-68
2023/08/04 04:48:26;;;;;;;2.30;0.90;;;16.60;99.90;;;;;;5056025;28;20475;-68
2023/08/04 04:50:53;;;;;;;2.00;0.77;;;16.60;99.90;;;;;;5055898;28;20436;-68
2023/08/04 04:53:20;;;;;;;3.70;1.17;;;16.60;99.90;;;;;;5051098;28;20472;-70
2023/08/04 04:55:47;;;;;;;3.70;1.03;;;16.40;99.90;;;;;;5054498;28;20527;-70
2023/08/04 04:58:14;;;;;;;1.80;0.83;;;16.30;99.90;;;;;;5056108;28;20949;-69
2023/08/04 05:00:41;;;;;;;2.10;1.00;;;16.40;99.90;;;;;;5055262;28;20552;-72
2023/08/04 05:03:10;;;;;;;2.70;1.23;;;16.40;99.90;;;;;;5055865;28;20437;-69
2023/08/04 05:05:39;;;;;;;4.00;2.90;;;16.50;99.90;;;;;;5056028;28;20434;-72
2023/08/04 05:08:06;;;;;;;3.80;1.90;;;16.50;99.90;;;;;;5054384;28;20990;-68
2023/08/04 05:10:33;;;;;;;2.53;1.07;;;16.60;99.90;;;;;;5055385;28;20671;-68
2023/08/04 05:13:00;;;;;;;4.47;1.03;;;16.60;99.90;;;;;;5055538;28;20441;-69
2023/08/04 05:15:27;;;;;;;5.83;1.10;;;16.70;99.90;;;;;;5056024;28;20464;-69
2023/08/04 05:17:54;;;;;;;2.30;1.13;;;16.70;99.90;;;;;;5054700;28;20491;-68
2023/08/04 05:20:25;;;;;;;4.87;1.03;;;16.70;99.90;;;;;;5055648;28;20556;-68
2023/08/04 05:22:53;;;;;;;3.30;1.20;;;16.70;99.80;;;;;;5055382;28;20520;-67
2023/08/04 05:25:20;;;;;;;3.07;0.80;;;16.70;99.70;;;;;;5055353;28;20523;-68
2023/08/04 05:27:51;;;;;;;2.93;1.03;;;16.70;99.50;;;;;;5054891;28;20959;-68
2023/08/04 05:30:18;;;;;;;1.80;1.07;;;16.70;99.30;;;;;;5055619;28;20464;-68
2023/08/04 05:32:45;;;;;;;4.07;2.57;;;16.70;99.50;;;;;;5055450;28;20429;-67
2023/08/04 05:35:12;;;;;;;4.43;3.07;;;16.80;99.50;;;;;;5054626;28;20437;-67
2023/08/04 05:37:39;;;;;;;4.00;1.90;;;16.70;99.30;;;;;;5054470;28;20433;-68
2023/08/04 05:40:09;;;;;;;4.13;1.33;;;16.70;99.60;;;;;;5055096;28;20510;-68
2023/08/04 05:42:36;;;;;;;2.57;1.00;;;16.70;99.90;;;;;;5054319;28;20442;-68
2023/08/04 05:45:03;;;;;;;6.33;2.23;;;16.60;98.80;;;;;;5055343;28;20864;-67
2023/08/04 05:47:31;;;;;;;1.93;0.80;;;16.60;98.40;;;;;;5054681;28;20499;-68
2023/08/04 05:49:58;;;;;;;3.10;1.00;;;16.60;99.00;;;;;;5054224;28;20471;-68
2023/08/04 05:52:25;;;;;;;1.90;0.80;;;16.70;99.70;;;;;;5054828;28;20944;-67
2023/08/04 05:54:54;;;;;;;1.83;0.67;;;16.70;99.60;;;;;;5049395;28;20461;-68
2023/08/04 05:57:23;;;;;;;2.17;1.00;;;16.70;99.30;;;;;;5044802;28;20464;-68
2023/08/04 05:59:50;;;;;;;3.53;0.90;;;16.80;99.20;;;;;;5053988;28;20531;-68
2023/08/04 06:02:16;;;;;;;3.20;1.43;;;16.90;99.00;;;;;;5054165;28;20460;-68
2023/08/04 06:04:44;;;;;;;2.30;0.90;;;16.90;99.00;;;;;;5054756;28;20461;-67
2023/08/04 06:07:11;;;;;;;3.10;1.03;;;16.90;99.40;;;;;;5054284;28;20484;-68
2023/08/04 06:09:38;;;;;;;2.47;0.97;;;16.90;99.60;;;;;;5053848;28;20485;-68
2023/08/04 06:12:06;;;;;;;2.00;0.83;;;16.90;99.50;;;;;;5054227;28;20516;-68
2023/08/04 06:14:34;;;;;;;1.80;0.60;;;17.00;99.60;;;;;;5053980;28;20465;-67
2023/08/04 06:17:01;;;;;;;2.27;0.97;;;17.00;99.20;;;;;;5054033;28;20519;-68
2023/08/04 06:19:28;;;;;;;1.87;0.83;;;17.00;99.30;;;;;;5054690;28;20472;-68
2023/08/04 06:21:55;;;;;;;3.00;0.90;;;17.00;98.40;;;;;;5051784;28;20560;-67
2023/08/04 06:24:33;;;;;;;1.90;0.70;;;17.00;98.40;;;;;;5053244;28;20440;-70
2023/08/04 06:27:00;;;;;;;1.80;0.70;;;17.00;97.10;;;;;;5054015;28;20426;-68
2023/08/04 06:29:27;;;;;;;1.80;0.80;;;16.80;96.70;;;;;;5054297;28;20479;-68
2023/08/04 06:31:55;;;;;;;3.23;1.23;;;16.70;97.30;;;;;;5052712;28;20537;-67
2023/08/04 06:34:22;;;;;;;2.93;0.70;;;16.70;97.90;;;;;;5050376;28;20437;-67
2023/08/04 06:36:49;;;;;;;2.00;0.63;;;16.80;97.60;;;;;;5053812;28;20444;-68
2023/08/04 06:39:16;;;;;;;2.70;0.80;;;16.90;97.60;;;;;;5054404;28;20465;-68
2023/08/04 06:41:43;;;;;;;1.80;0.73;;;16.90;96.80;;;;;;5052514;28;21046;-68
2023/08/04 06:44:10;;;;;;;1.90;0.70;;;16.80;96.90;;;;;;5053788;28;20830;-68
2023/08/04 06:46:37;;;;;;;1.83;0.90;;;16.80;97.10;;;;;;5052168;28;20868;-68
2023/08/04 06:49:05;;;;;;;2.07;0.80;;;16.90;97.10;;;;;;5053447;28;20517;-68
2023/08/04 06:51:32;;;;;;;1.80;0.80;;;16.90;97.20;;;;;;5053281;28;20924;-69
2023/08/04 06:53:59;;;;;;;1.73;0.77;;;17.00;97.20;;;;;;5052312;28;20500;-68
2023/08/04 06:56:26;;;;;;;1.70;0.60;;;16.90;97.30;;;;;;5053602;28;20456;-68
2023/08/04 06:58:53;;;;;;;2.07;1.20;;;17.00;96.60;;;;;;5053424;28;20475;-68
2023/08/04 07:01:20;;;;;;;2.30;1.10;;;16.90;96.10;;;;;;5053752;28;20500;-68
2023/08/04 07:03:48;;;;;;;1.90;0.80;;;16.90;96.30;;;;;;5053809;28;20476;-68
2023/08/04 07:06:16;;;;;;;2.03;0.93;;;16.80;96.50;;;;;;5053883;28;20437;-68
2023/08/04 07:08:43;;;;;;;5.43;1.27;;;16.80;96.90;;;;;;5053841;28;20433;-68
2023/08/04 07:11:15;;;;;;;2.87;0.83;;;16.60;96.90;;;;;;5053341;28;20504;-68
2023/08/04 07:13:42;;;;;;;2.07;0.90;;;16.40;97.60;;;;;;5052310;28;20938;-67
2023/08/04 07:16:10;;;;;;;2.57;0.80;;;16.50;97.90;;;;;;5053718;28;20526;-67
2023/08/04 07:18:37;;;;;;;2.07;1.00;;;16.60;98.20;;;;;;5053261;28;20531;-67
2023/08/04 07:21:07;;;;;;;2.30;0.87;;;16.70;98.20;;;;;;5053458;28;20542;-68
2023/08/04 07:23:36;;;;;;;1.90;0.87;;;16.60;97.90;;;;;;5053613;28;20487;-67
2023/08/04 07:26:03;;;;;;;2.10;1.10;;;16.70;98.00;;;;;;5053313;28;20493;-68
2023/08/04 07:28:31;;;;;;;2.30;1.00;;;16.60;97.50;;;;;;5051374;28;20437;-68
2023/08/04 07:30:59;;;;;;;2.60;0.80;;;16.60;98.00;;;;;;5053967;28;20523;-68
2023/08/04 07:33:27;;;;;;;2.03;0.80;;;16.70;98.40;;;;;;5060000;28;20437;-68
2023/08/04 07:35:55;;;;;;;1.60;0.70;;;16.80;98.40;;;;;;5059752;28;20441;-68
2023/08/04 07:38:22;;;;;;;2.47;0.93;;;17.00;98.50;;;;;;5059749;28;20511;-67
2023/08/04 07:40:51;;;;;;;3.10;0.73;;;17.10;98.40;;;;;;5059621;28;20567;-68
2023/08/04 07:43:18;;;;;;;1.80;0.70;;;17.20;98.30;;;;;;5059677;28;20425;-68
2023/08/04 07:45:45;;;;;;;2.27;1.00;;;17.20;98.30;;;;;;5059668;28;20520;-68
2023/08/04 07:48:12;;;;;;;3.70;1.17;;;17.10;97.70;;;;;;5059991;28;20472;-67
2023/08/04 07:50:40;;;;;;;2.00;1.00;;;17.20;97.70;;;;;;5059569;28;20476;-68
2023/08/04 07:53:07;;;;;;;3.13;1.07;;;17.30;97.80;;;;;;5059893;28;20468;-68
2023/08/04 07:55:36;;;;;;;2.20;0.80;;;17.40;97.60;;;;;;5059924;28;20473;-68
2023/08/04 07:58:04;;;;;;;1.70;0.80;;;17.50;97.40;;;;;;5059932;28;20439;-68
2023/08/04 08:00:31;;;;;;;2.53;0.90;;;17.60;96.90;;;;;;5059513;28;20495;-68
2023/08/04 08:02:58;;;;;;;1.97;0.70;;;17.60;97.00;;;;;;5059597;28;20523;-68
2023/08/04 08:05:25;;;;;;;1.60;0.70;;;17.60;97.30;;;;;;5056840;28;20523;-67
2023/08/04 08:07:52;;;;;;;1.80;0.70;;;17.70;97.20;;;;;;5059813;28;20508;-67
2023/08/04 08:10:19;;;;;;;2.47;0.70;;;17.80;97.10;;;;;;5076387;28;20492;-67
2023/08/04 08:12:47;;;;;;;1.90;0.80;;;17.80;96.20;;;;;;5079928;28;20531;-68
2023/08/04 08:15:15;;;;;;;2.10;0.83;;;17.80;95.90;;;;;;5079241;28;20500;-68
2023/08/04 08:17:43;;;;;;;4.33;0.80;;;17.80;96.30;;;;;;5079245;28;20849;-68
2023/08/04 08:20:11;;;;;;;2.13;0.87;;;17.90;95.10;;;;;;5079490;28;20520;-68
2023/08/04 08:22:38;;;;;;;1.70;0.60;;;17.90;95.40;;;;;;5079086;28;20568;-68
2023/08/04 08:25:05;;;;;;;1.80;0.67;;;17.90;95.40;;;;;;5079311;28;20452;-68
2023/08/04 08:27:32;;;;;;;1.70;0.73;;;17.90;95.10;;;;;;5079337;28;20437;-67
2023/08/04 08:29:59;;;;;;;2.40;0.80;;;17.90;95.20;;;;;;5079150;28;20523;-68
2023/08/04 08:32:27;;;;;;;4.07;0.90;;;17.90;94.40;;;;;;5079421;28;20539;-68
2023/08/04 08:34:54;;;;;;;3.50;1.00;;;17.90;94.70;;;;;;5078706;28;20515;-68
2023/08/04 08:37:21;;;;;;;3.30;0.90;;;18.00;95.60;;;;;;5077670;28;20511;-68
2023/08/04 08:39:48;;;;;;;3.67;0.90;;;18.10;96.00;;;;;;5079351;28;20437;-67
2023/08/04 08:42:15;;;;;;;3.20;0.80;;;18.10;96.50;;;;;;5078683;28;20567;-67
2023/08/04 08:44:42;;;;;;;3.57;0.97;;;18.10;94.90;;;;;;5074089;28;20897;-68
2023/08/04 08:47:09;;;;;;;3.40;0.80;;;18.10;93.30;;;;;;5076160;28;20464;-67
2023/08/04 08:49:45;;;;;;;3.10;0.60;;;17.80;93.10;;;;;;5076195;28;20468;-68
2023/08/04 08:52:12;;;;;;;5.00;0.83;;;17.80;93.70;;;;;;5076178;28;20528;-68
2023/08/04 08:54:40;;;;;;;2.13;0.87;;;17.90;94.70;;;;;;5075967;28;20512;-69
2023/08/04 08:57:08;;;;;;;2.23;0.80;;;18.00;94.80;;;;;;5075710;28;20472;-68
2023/08/04 08:59:35;;;;;;;2.10;0.90;;;18.10;95.00;;;;;;5075923;28;20524;-67
2023/08/04 09:02:02;;;;;;;2.40;0.80;;;18.20;95.30;;;;;;5075833;28;20563;-68
2023/08/04 09:04:34;;;;;;;2.10;0.80;;;18.40;95.30;;;;;;5075487;28;20923;-67
2023/08/04 09:07:02;;;;;;;2.40;0.70;;;18.50;95.30;;;;;;5076032;28;20421;-68
2023/08/04 09:09:29;;;;;;;2.93;1.03;;;18.60;95.00;;;;;;5075040;28;20445;-68
2023/08/04 09:11:56;;;;;;;2.20;0.70;;;18.70;94.30;;;;;;5075382;28;20438;-68
2023/08/04 09:14:23;;;;;;;2.37;0.93;;;18.80;93.70;;;;;;5075350;28;20928;-67
2023/08/04 09:16:50;;;;;;;3.40;0.97;;;18.90;93.20;;;;;;5075540;28;20465;-68
2023/08/04 09:19:17;;;;;;;2.20;0.87;;;19.00;93.10;;;;;;5075569;28;20521;-68
2023/08/04 09:21:44;;;;;;;2.40;0.60;;;19.10;93.70;;;;;;5075384;28;20564;-67
2023/08/04 09:24:13;;;;;;;2.17;0.80;;;19.30;94.50;;;;;;5075246;28;20769;-68
2023/08/04 09:26:45;;;;;;;2.83;0.90;;;19.50;94.50;;;;;;5075579;28;20548;-68
2023/08/04 09:29:13;;;;;;;2.63;0.80;;;19.70;93.90;;;;;;5075610;28;20418;-67
2023/08/04 09:31:41;;;;;;;2.43;0.80;;;19.80;94.20;;;;;;5075060;28;20473;-68
2023/08/04 09:34:10;;;;;;;2.20;0.80;;;19.90;93.80;;;;;;5075294;28;20474;-69
2023/08/04 09:36:39;;;;;;;1.77;0.60;;;20.00;92.90;;;;;;5075086;28;20521;-68
2023/08/04 09:39:06;;;;;;;2.10;0.70;;;20.00;92.50;;;;;;5074833;28;20426;-69
2023/08/04 09:41:38;;;;;;;2.23;0.73;;;20.10;92.40;;;;;;5075170;28;20553;-68
2023/08/04 09:44:10;;;;;;;2.50;0.80;;;20.20;91.80;;;;;;5075177;28;20859;-68
2023/08/04 09:46:39;;;;;;;2.57;0.90;;;20.30;91.40;;;;;;5075112;28;20426;-68
2023/08/04 09:49:06;;;;;;;2.17;0.70;;;20.40;91.80;;;;;;5074767;28;20796;-67
2023/08/04 09:51:41;;;;;;;2.40;1.10;;;20.50;90.80;;;;;;5074923;28;20465;-68
2023/08/04 09:54:08;;;;;;;2.07;0.80;;;20.50;90.70;;;;;;5074432;28;20466;-68
2023/08/04 09:56:37;;;;;;;2.70;1.00;;;20.60;90.20;;;;;;5074783;28;20444;-68
2023/08/04 09:59:07;;;;;;;3.30;1.03;;;20.70;90.30;;;;;;5074840;28;20530;-67
2023/08/04 10:01:34;;;;;;;2.67;0.73;;;20.70;91.00;;;;;;5073940;28;20465;-70
2023/08/04 10:04:02;;;;;;;2.60;0.90;;;20.80;91.50;;;;;;5074610;28;21000;-68
2023/08/04 10:06:30;;;;;;;2.20;0.70;;;20.90;91.60;;;;;;5074324;28;20435;-68
2023/08/04 10:08:57;;;;;;;2.83;1.33;;;21.00;91.70;;;;;;5074669;28;20436;-68
2023/08/04 10:11:24;;;;;;;4.03;0.77;;;21.10;90.90;;;;;;5073029;28;20474;-68
2023/08/04 10:13:56;;;;;;;3.57;0.80;;;21.20;90.30;;;;;;5074003;28;20501;-68
2023/08/04 10:16:25;;;;;;;2.00;0.73;;;21.30;88.40;;;;;;5074252;28;20522;-67
2023/08/04 10:18:54;;;;;;;2.10;0.80;;;21.20;87.80;;;;;;5074112;28;20471;-68
2023/08/04 10:21:26;;;;;;;3.90;0.90;;;21.30;89.00;;;;;;5074147;28;20471;-68
2023/08/04 10:23:54;;;;;;;3.43;0.90;;;21.40;88.90;;;;;;5074049;28;20462;-68
2023/08/04 10:26:21;;;;;;;2.80;1.07;;;21.40;88.60;;;;;;5074412;28;20478;-68
2023/08/04 10:29:06;;;;;;;3.40;0.80;;;21.50;87.70;;;;;;5073942;28;20465;-68
2023/08/04 10:31:57;;;;;;;2.80;0.90;;;21.50;87.00;;;;;;5073983;28;20891;-68
2023/08/04 10:34:26;;;;;;;2.53;1.00;;;21.60;85.00;;;;;;5073826;28;20451;-68
2023/08/04 10:37:04;;;;;;;2.60;1.37;;;21.60;85.60;;;;;;5074045;28;20517;-68
2023/08/04 10:39:33;;;;;;;2.90;1.10;;;21.70;87.10;;;;;;5074175;28;20828;-68
2023/08/04 10:42:04;;;;;;;2.47;1.17;;;21.90;85.90;;;;;;5073979;28;20562;-68
2023/08/04 10:44:48;;;;;;;2.50;0.97;;;22.00;87.90;;;;;;5074102;28;20483;-68
2023/08/04 10:47:15;;;;;;;3.03;1.13;;;22.20;88.80;;;;;;5074013;28;20523;-68
2023/08/04 10:49:43;;;;;;;3.93;1.47;;;22.20;84.90;;;;;;5073358;28;20519;-68
2023/08/04 10:52:10;;;;;;;2.23;0.93;;;22.20;84.50;;;;;;5073419;28;20432;-68
2023/08/04 10:54:37;;;;;;;3.30;1.13;;;22.20;81.50;;;;;;5073752;28;20512;-68
2023/08/04 10:57:04;;;;;;;4.20;1.30;;;22.00;79.90;;;;;;5073718;28;20510;-68
2023/08/04 10:59:33;;;;;;;4.60;1.30;;;21.90;80.70;;;;;;5073747;28;20485;-68
2023/08/04 11:02:00;;;;;;;2.43;0.93;;;21.90;83.70;;;;;;5073377;28;20474;-68
2023/08/04 11:04:27;;;;;;;2.37;1.00;;;22.00;82.70;;;;;;5052151;28;20518;-73
2023/08/04 11:06:58;;;;;;;4.00;1.50;;;22.00;81.30;;;;;;5052906;28;20845;-68
2023/08/04 11:09:25;;;;;;;3.00;1.20;;;22.10;81.80;;;;;;5051772;28;20523;-68
2023/08/04 11:11:52;;;;;;;2.70;1.23;;;22.30;84.60;;;;;;5053366;28;20460;-68
2023/08/04 11:14:19;;;;;;;2.63;1.10;;;22.50;84.90;;;;;;5053611;28;20521;-68
2023/08/04 11:16:49;;;;;;;3.87;1.60;;;22.60;83.10;;;;;;5049033;28;20906;-68
2023/08/04 11:19:20;;;;;;;2.80;1.40;;;22.80;81.30;;;;;;5052234;28;20487;-68
2023/08/04 11:21:47;;;;;;;3.00;1.60;;;22.90;78.10;;;;;;5052478;28;20871;-68
2023/08/04 11:24:14;;;;;;;4.23;1.20;;;22.80;77.20;;;;;;5053130;28;20476;-68
2023/08/04 11:26:41;;;;;;;2.57;1.20;;;22.90;77.10;;;;;;5052648;28;20935;-68
2023/08/04 11:29:08;;;;;;;2.40;1.00;;;23.00;77.00;;;;;;5051733;28;20441;-68
2023/08/04 11:31:41;;;;;;;2.57;0.87;;;23.00;74.60;;;;;;5052145;28;20472;-68
2023/08/04 11:34:14;;;;;;;3.07;1.30;;;23.10;74.40;;;;;;5052314;28;20524;-68
2023/08/04 11:36:41;;;;;;;2.63;1.00;;;23.20;75.60;;;;;;5051609;28;20437;-68
2023/08/04 11:39:14;;;;;;;2.73;1.17;;;23.30;75.20;;;;;;5053316;28;20431;-68
2023/08/04 11:41:43;;;;;;;3.80;0.90;;;23.40;74.90;;;;;;5049869;28;20928;-68
2023/08/04 11:44:10;;;;;;;2.63;1.10;;;23.60;71.30;;;;;;5050418;28;20752;-68
2023/08/04 11:46:39;;;;;;;2.27;0.90;;;23.70;68.00;;;;;;5053024;28;20521;-68
2023/08/04 11:49:06;;;;;;;2.40;1.10;;;23.80;70.50;;;;;;5051942;28;20480;-71
2023/08/04 11:51:35;;;;;;;2.37;0.93;;;23.80;70.70;;;;;;5052602;28;20522;-68
2023/08/04 11:54:02;;;;;;;2.87;1.00;;;24.00;68.70;;;;;;5053325;28;20838;-68
2023/08/04 11:56:38;;;;;;;2.50;1.00;;;24.10;69.20;;;;;;5052689;28;20453;-68
2023/08/04 11:59:12;;;;;;;2.43;1.07;;;24.30;68.90;;;;;;5052822;28;20433;-69
2023/08/04 12:01:39;;;;;;;2.40;1.00;;;24.40;69.50;;;;;;5053042;28;20433;-68
2023/08/04 12:04:21;;;;;;;2.57;0.87;;;24.50;66.20;;;;;;5053100;28;20520;-68
2023/08/04 12:06:56;;;;;;;3.30;0.97;;;24.60;64.10;;;;;;5053128;28;20529;-68
2023/08/04 12:09:23;;;;;;;3.77;0.80;;;24.50;61.80;;;;;;5052865;28;20818;-68
2023/08/04 12:11:51;;;;;;;3.37;1.17;;;24.30;62.20;;;;;;5053417;28;20457;-68
2023/08/04 12:14:19;;;;;;;2.60;0.70;;;24.30;63.60;;;;;;5052661;28;20514;-68
2023/08/04 12:16:52;;;;;;;2.23;0.83;;;24.30;62.10;;;;;;5039815;28;20529;-68
2023/08/04 12:19:19;;;;;;;2.17;0.80;;;24.20;61.60;;;;;;5052796;28;20456;-68
2023/08/04 12:21:46;;;;;;;3.40;1.40;;;24.20;62.60;;;;;;5056146;28;20510;-68
2023/08/04 12:24:14;;;;;;;2.63;1.00;;;24.10;62.30;;;;;;5056356;28;20436;-69
2023/08/04 12:26:42;;;;;;;2.60;0.90;;;24.10;63.80;;;;;;5056238;28;20483;-68
2023/08/04 12:29:09;;;;;;;2.93;0.70;;;24.10;60.40;;;;;;5056324;28;20440;-68
2023/08/04 12:31:36;;;;;;;2.90;0.80;;;24.00;60.40;;;;;;5055205;28;20429;-68
2023/08/04 12:34:03;;;;;;;2.37;0.80;;;24.00;60.60;;;;;;5056218;28;20532;-68
2023/08/04 12:36:30;;;;;;;2.23;0.80;;;24.00;61.30;;;;;;5056220;28;20433;-68
2023/08/04 12:38:58;;;;;;;2.03;0.90;;;24.00;60.80;;;;;;5055926;28;20511;-68
2023/08/04 12:41:26;;;;;;;2.30;1.00;;;23.90;60.90;;;;;;5056556;28;20768;-68
2023/08/04 12:43:53;;;;;;;2.33;0.80;;;24.00;62.70;;;;;;5055604;28;20963;-68
2023/08/04 12:46:20;;;;;;;2.23;0.80;;;24.00;64.10;;;;;;5056316;28;20464;-68
2023/08/04 12:48:47;;;;;;;4.13;0.90;;;24.00;61.30;;;;;;5055808;28;20471;-68
2023/08/04 12:51:14;;;;;;;2.27;0.73;;;24.00;61.00;;;;;;5056288;28;20468;-68
2023/08/04 12:53:41;;;;;;;2.20;0.70;;;24.00;59.90;;;;;;5055617;28;20430;-68